Time;durP1;ratioP1;P1;durP2;ratioP2;P2;SDS_P1;SDS_P2;PMS_P1;PMS_P2;Temp;Humidity;BMP_temperature;BMP_pressure;BME280_temperature;BME280_humidity;BME280_pressure;Samples;Min_cycle;Max_cycle;Signal;HPM_P1;HPM_P2
2023/12/16 00:00:47;;;;;;;93.63;29.60;;;;;;;4.84;100.00;103003.94;7397424;19;20369;-68
2023/12/16 00:03:15;;;;;;;80.80;27.80;;;;;;;4.85;100.00;103000.50;7396883;19;20082;-68
2023/12/16 00:05:44;;;;;;;83.68;28.48;;;;;;;4.85;100.00;103005.72;7397368;19;20418;-68
2023/12/16 00:08:19;;;;;;;72.82;28.23;;;;;;;4.87;100.00;103014.47;7395411;19;20414;-69
2023/12/16 00:10:50;;;;;;;91.97;29.75;;;;;;;4.87;100.00;103019.66;7398035;19;20061;-69
2023/12/16 00:13:19;;;;;;;88.07;30.10;;;;;;;4.87;100.00;103020.53;7396262;19;20081;-69
2023/12/16 00:15:47;;;;;;;83.80;27.98;;;;;;;4.89;100.00;103018.00;7396019;19;20073;-69
2023/12/16 00:18:16;;;;;;;83.90;28.38;;;;;;;4.88;100.00;103011.03;7397125;19;20086;-68
2023/12/16 00:20:45;;;;;;;94.95;30.00;;;;;;;4.89;100.00;103026.69;7397197;19;20077;-68
2023/12/16 00:23:14;;;;;;;85.65;28.77;;;;;;;4.89;100.00;103023.19;7396318;19;20036;-69
2023/12/16 00:25:42;;;;;;;75.70;28.55;;;;;;;4.88;100.00;103019.72;7396635;19;20545;-68
2023/12/16 00:28:13;;;;;;;80.82;27.85;;;;;;;4.88;100.00;103024.06;7396534;19;20548;-68
2023/12/16 00:30:41;;;;;;;75.43;27.55;;;;;;;4.87;100.00;103030.06;7397323;19;20020;-68
2023/12/16 00:33:10;;;;;;;81.40;27.70;;;;;;;4.86;100.00;103028.28;7394965;19;20011;-69
2023/12/16 00:35:39;;;;;;;81.75;27.50;;;;;;;4.85;100.00;103036.91;7395151;19;20010;-69
2023/12/16 00:38:08;;;;;;;85.95;27.27;;;;;;;4.84;100.00;103036.03;7393397;19;20014;-69
2023/12/16 00:40:36;;;;;;;83.63;27.88;;;;;;;4.84;100.00;103024.75;7395899;19;20065;-69
2023/12/16 00:43:05;;;;;;;72.70;26.58;;;;;;;4.83;100.00;103017.78;7395449;19;20082;-68
2023/12/16 00:45:36;;;;;;;78.82;26.42;;;;;;;4.81;100.00;103015.09;7394779;19;20074;-68
2023/12/16 00:48:05;;;;;;;79.95;26.42;;;;;;;4.82;100.00;103021.22;7396337;19;20413;-68
2023/12/16 00:50:33;;;;;;;76.60;26.00;;;;;;;4.81;100.00;103019.44;7394673;19;20082;-68
2023/12/16 00:53:02;;;;;;;80.53;27.75;;;;;;;4.79;100.00;103005.47;7395618;19;20086;-68
2023/12/16 00:55:30;;;;;;;70.82;26.08;;;;;;;4.77;100.00;103008.03;7395171;19;20018;-67
2023/12/16 00:57:59;;;;;;;69.07;25.23;;;;;;;4.77;100.00;103007.16;7396044;19;20027;-68
2023/12/16 01:00:27;;;;;;;79.50;25.85;;;;;;;4.75;100.00;103009.66;7395694;19;20077;-68
2023/12/16 01:02:58;;;;;;;84.43;26.52;;;;;;;4.74;100.00;103013.13;7395337;19;20169;-67
2023/12/16 01:05:27;;;;;;;70.13;24.00;;;;;;;4.74;100.00;103007.91;7395546;19;20074;-66
2023/12/16 01:07:55;;;;;;;79.63;25.40;;;;;;;4.73;100.00;103017.41;7395753;19;20074;-67
2023/12/16 01:10:45;;;;;;;68.20;24.20;;;;;;;4.73;100.00;103024.34;7395791;19;20070;-68
2023/12/16 01:13:20;;;;;;;74.97;26.40;;;;;;;4.73;100.00;103024.34;7394157;19;20481;-67
2023/12/16 01:15:55;;;;;;;78.53;27.80;;;;;;;4.72;100.00;103039.03;7394210;19;20522;-68
2023/12/16 01:18:26;;;;;;;69.88;25.17;;;;;;;4.71;100.00;103026.88;7395032;19;20020;-68
2023/12/16 01:20:54;;;;;;;72.65;26.83;;;;;;;4.72;100.00;103040.75;7395125;19;20010;-68
2023/12/16 01:23:23;;;;;;;76.75;25.75;;;;;;;4.72;100.00;103041.63;7394066;19;20533;-68
2023/12/16 01:25:51;;;;;;;76.90;27.25;;;;;;;4.72;100.00;103044.25;7395325;19;20424;-72
2023/12/16 01:28:20;;;;;;;72.82;26.27;;;;;;;4.71;100.00;103041.59;7395275;19;20086;-76
2023/12/16 01:30:48;;;;;;;83.40;27.35;;;;;;;4.71;100.00;103042.50;7394957;19;20359;-73
2023/12/16 01:33:17;;;;;;;74.95;26.08;;;;;;;4.73;100.00;103042.53;7393232;19;20073;-69
2023/12/16 01:35:48;;;;;;;80.10;27.25;;;;;;;4.73;100.00;103042.53;7393534;19;20011;-70
2023/12/16 01:38:16;;;;;;;84.78;26.98;;;;;;;4.72;100.00;103040.75;7395423;19;20070;-69
2023/12/16 01:40:45;;;;;;;94.18;27.33;;;;;;;4.72;100.00;103023.44;7394563;19;20074;-69
2023/12/16 01:43:13;;;;;;;86.25;28.02;;;;;;;4.73;100.00;103022.63;7394309;19;20022;-70
2023/12/16 01:45:42;;;;;;;87.70;27.58;;;;;;;4.71;100.00;103011.28;7397111;19;20014;-69
2023/12/16 01:48:13;;;;;;;88.97;28.35;;;;;;;4.73;100.00;103009.59;7394243;19;20426;-69
2023/12/16 01:50:42;;;;;;;90.45;28.77;;;;;;;4.74;100.00;103015.72;7397121;19;20007;-69
2023/12/16 01:53:13;;;;;;;89.88;28.58;;;;;;;4.76;100.00;103023.56;7401004;19;20074;-70
2023/12/16 01:55:42;;;;;;;90.93;29.42;;;;;;;4.76;100.00;103028.78;7401200;19;20006;-70
2023/12/16 01:58:11;;;;;;;80.43;28.02;;;;;;;4.78;100.00;103024.50;7401981;19;20011;-69
2023/12/16 02:00:40;;;;;;;89.45;30.10;;;;;;;4.79;100.00;103021.06;7401914;19;20066;-68
2023/12/16 02:03:08;;;;;;;90.97;29.42;;;;;;;4.78;100.00;103020.19;7398917;19;20011;-68
2023/12/16 02:05:38;;;;;;;83.45;29.48;;;;;;;4.80;100.00;103020.25;7401311;19;20412;-68
2023/12/16 02:08:07;;;;;;;91.60;30.20;;;;;;;4.81;100.00;103015.09;7401232;19;20491;-69
2023/12/16 02:10:38;;;;;;;91.82;30.52;;;;;;;4.82;100.00;103016.00;7401176;19;20388;-67
2023/12/16 02:13:04;;;;;;;101.90;30.75;;;;;;;4.83;100.00;103023.00;7400331;19;20090;-69
2023/12/16 02:15:33;;;;;;;97.10;31.42;;;;;;;4.84;100.00;103033.44;7400373;19;20074;-69
2023/12/16 02:18:01;;;;;;;92.80;29.17;;;;;;;4.86;100.00;103028.28;7401311;19;20082;-69
2023/12/16 02:20:30;;;;;;;91.20;30.42;;;;;;;4.87;100.00;103024.88;7400818;19;20010;-69
2023/12/16 02:22:59;;;;;;;99.43;31.20;;;;;;;4.88;100.00;103026.66;7400320;19;20015;-69
2023/12/16 02:25:31;;;;;;;101.43;30.08;;;;;;;4.90;100.00;103035.38;7401056;19;20082;-69
2023/12/16 02:27:59;;;;;;;90.55;30.38;;;;;;;4.92;100.00;103043.28;7398518;19;20022;-68
2023/12/16 02:30:28;;;;;;;102.45;32.63;;;;;;;4.93;100.00;103058.03;7400555;19;20580;-69
2023/12/16 02:32:56;;;;;;;101.47;30.42;;;;;;;4.95;100.00;103072.00;7399965;19;20015;-69
2023/12/16 02:35:25;;;;;;;101.93;34.45;;;;;;;4.96;100.00;103066.84;7399921;19;20083;-69
2023/12/16 02:37:53;;;;;;;102.88;31.48;;;;;;;4.96;100.00;103066.84;7400273;19;20500;-68
2023/12/16 02:40:22;;;;;;;91.07;31.27;;;;;;;4.98;100.00;103070.41;7400563;19;20015;-68
2023/12/16 02:42:53;;;;;;;98.20;31.00;;;;;;;4.98;100.00;103062.59;7399692;19;20074;-69
2023/12/16 02:45:21;;;;;;;88.90;31.02;;;;;;;5.01;100.00;103072.22;7400798;19;20014;-69
2023/12/16 02:47:50;;;;;;;92.93;31.33;;;;;;;5.02;100.00;103058.41;7400252;19;20023;-69
2023/12/16 02:50:18;;;;;;;90.30;30.42;;;;;;;5.02;100.00;103061.88;7399852;19;20549;-69
2023/12/16 02:52:47;;;;;;;85.78;29.67;;;;;;;5.01;100.00;103060.09;7397664;19;20082;-68
2023/12/16 02:55:17;;;;;;;85.68;29.67;;;;;;;5.02;100.00;103064.47;7399243;19;20014;-68
2023/12/16 02:57:45;;;;;;;86.53;31.08;;;;;;;5.02;100.00;103064.47;7397302;19;20485;-68
2023/12/16 03:00:20;;;;;;;91.03;29.98;;;;;;;5.03;100.00;103067.94;7397586;19;20082;-69
2023/12/16 03:02:48;;;;;;;91.20;28.98;;;;;;;5.02;100.00;103059.28;7398080;19;20018;-69
2023/12/16 03:05:17;;;;;;;87.15;28.35;;;;;;;5.01;100.00;103059.22;7397471;19;20078;-69
2023/12/16 03:07:45;;;;;;;91.95;28.95;;;;;;;5.00;100.00;103060.03;7399704;19;20077;-69
2023/12/16 03:10:14;;;;;;;77.70;29.17;;;;;;;5.00;100.00;103058.31;7399234;19;20011;-69
2023/12/16 03:12:42;;;;;;;78.95;27.75;;;;;;;4.99;100.00;103056.56;7398129;19;20493;-69
2023/12/16 03:15:11;;;;;;;74.05;27.60;;;;;;;4.99;100.00;103051.38;7399378;19;20015;-69
2023/12/16 03:17:43;;;;;;;70.30;27.92;;;;;;;4.98;100.00;103054.78;7398973;19;20476;-69
2023/12/16 03:20:13;;;;;;;74.88;26.25;;;;;;;4.98;100.00;103044.38;7398881;19;20023;-69
2023/12/16 03:22:41;;;;;;;79.45;27.48;;;;;;;4.98;100.00;103041.78;7398268;19;20410;-70
2023/12/16 03:25:10;;;;;;;78.70;26.20;;;;;;;4.98;100.00;103035.66;7399078;19;20014;-70
2023/12/16 03:27:39;;;;;;;70.88;26.92;;;;;;;4.99;100.00;103034.84;7398503;19;20496;-70
2023/12/16 03:30:09;;;;;;;76.20;26.48;;;;;;;4.97;100.00;103032.19;7398941;19;20024;-69
2023/12/16 03:32:39;;;;;;;59.60;24.33;;;;;;;4.97;100.00;103042.59;7397998;19;20014;-70
2023/12/16 03:35:10;;;;;;;62.33;23.50;;;;;;;4.95;100.00;103054.66;7398724;19;20021;-69
2023/12/16 03:37:39;;;;;;;60.35;23.65;;;;;;;4.96;100.00;103051.22;7398942;19;20079;-70
2023/12/16 03:40:09;;;;;;;64.13;24.30;;;;;;;4.97;100.00;103052.13;7398152;19;20014;-69
2023/12/16 03:42:38;;;;;;;57.28;22.83;;;;;;;4.96;100.00;103056.44;7395938;19;20081;-70
2023/12/16 03:45:07;;;;;;;56.20;23.08;;;;;;;4.97;100.00;103059.94;7398142;19;20548;-69
2023/12/16 03:47:37;;;;;;;59.80;22.88;;;;;;;4.96;100.00;103066.84;7398301;19;20090;-69
2023/12/16 03:50:06;;;;;;;53.67;21.50;;;;;;;4.97;100.00;103081.63;7397892;19;20082;-69
2023/12/16 03:52:37;;;;;;;55.78;21.17;;;;;;;4.96;100.00;103085.06;7397953;19;20014;-70
2023/12/16 03:55:07;;;;;;;52.60;20.48;;;;;;;4.96;100.00;103092.84;7398551;19;20073;-69
2023/12/16 03:57:42;;;;;;;57.67;21.65;;;;;;;4.96;100.00;103098.06;7395654;19;20006;-69
2023/12/16 04:00:11;;;;;;;61.08;22.27;;;;;;;4.95;100.00;103096.28;7397874;19;20032;-69
2023/12/16 04:02:39;;;;;;;52.40;20.63;;;;;;;4.96;100.00;103100.66;7397432;19;20082;-69
2023/12/16 04:05:09;;;;;;;56.50;21.38;;;;;;;4.95;100.00;103105.81;7397372;19;20086;-69
2023/12/16 04:07:40;;;;;;;45.65;19.02;;;;;;;4.96;100.00;103118.00;7397681;19;20078;-70
2023/12/16 04:10:11;;;;;;;48.42;18.88;;;;;;;4.96;100.00;103111.06;7397276;19;20078;-69
2023/12/16 04:12:40;;;;;;;47.63;18.80;;;;;;;4.96;100.00;103113.66;7396471;19;20104;-70
2023/12/16 04:15:10;;;;;;;45.90;18.08;;;;;;;4.96;100.00;103103.25;7396257;19;20014;-69
2023/12/16 04:17:38;;;;;;;44.83;17.63;;;;;;;4.96;100.00;103094.59;7395398;19;20066;-69
2023/12/16 04:20:08;;;;;;;42.33;17.92;;;;;;;4.96;100.00;103091.97;7395114;19;20536;-69
2023/12/16 04:22:39;;;;;;;45.78;19.90;;;;;;;4.95;100.00;103093.69;7396477;19;20477;-69
2023/12/16 04:25:10;;;;;;;44.85;17.85;;;;;;;4.95;100.00;103091.06;7397497;19;20031;-69
2023/12/16 04:27:41;;;;;;;45.50;17.10;;;;;;;4.94;100.00;103094.53;7396665;19;20029;-69
2023/12/16 04:30:10;;;;;;;44.22;17.85;;;;;;;4.93;100.00;103099.66;7394803;19;20499;-69
2023/12/16 04:32:39;;;;;;;43.15;17.02;;;;;;;4.93;100.00;103105.75;7396426;19;20030;-70
2023/12/16 04:35:09;;;;;;;37.40;17.48;;;;;;;4.93;100.00;103105.75;7396759;19;20023;-69
2023/12/16 04:37:40;;;;;;;45.00;17.75;;;;;;;4.92;100.00;103098.78;7395058;19;20070;-69
2023/12/16 04:40:10;;;;;;;41.35;17.08;;;;;;;4.92;100.00;103096.19;7397088;19;20011;-69
2023/12/16 04:42:39;;;;;;;42.53;16.75;;;;;;;4.94;100.00;103101.44;7396553;19;20085;-68
2023/12/16 04:45:08;;;;;;;40.92;17.10;;;;;;;4.93;100.00;103094.44;7396539;19;20435;-68
2023/12/16 04:47:38;;;;;;;43.83;16.83;;;;;;;4.93;100.00;103097.94;7394695;19;20023;-68
2023/12/16 04:50:08;;;;;;;41.08;16.42;;;;;;;4.94;100.00;103098.81;7396297;19;20030;-69
2023/12/16 04:52:36;;;;;;;41.15;17.08;;;;;;;4.93;100.00;103082.34;7395869;19;20074;-69
2023/12/16 04:55:09;;;;;;;42.38;16.75;;;;;;;4.91;100.00;103084.00;7394282;19;20436;-69
2023/12/16 04:57:37;;;;;;;42.47;17.38;;;;;;;4.95;100.00;103085.00;7394327;19;20091;-69
2023/12/16 05:00:08;;;;;;;40.80;16.40;;;;;;;4.97;100.00;103093.75;7396106;19;20014;-68
2023/12/16 05:02:36;;;;;;;41.13;17.10;;;;;;;4.96;100.00;103082.44;7397398;19;20010;-68
2023/12/16 05:05:04;;;;;;;46.85;17.52;;;;;;;4.99;100.00;103081.69;7396296;19;20024;-69
2023/12/16 05:07:33;;;;;;;40.13;17.35;;;;;;;4.97;100.00;103075.56;7394062;19;20023;-69
2023/12/16 05:10:01;;;;;;;35.17;16.63;;;;;;;4.97;100.00;103081.63;7395876;19;20081;-68
2023/12/16 05:12:33;;;;;;;47.63;18.55;;;;;;;4.98;100.00;103082.50;7395090;19;20497;-68
2023/12/16 05:15:01;;;;;;;40.38;16.73;;;;;;;4.98;100.00;103082.50;7393768;19;20007;-68
2023/12/16 05:17:30;;;;;;;36.65;16.00;;;;;;;4.98;100.00;103086.00;7394185;19;20090;-68
2023/12/16 05:19:58;;;;;;;39.83;16.77;;;;;;;4.98;100.00;103088.59;7393623;19;20082;-68
2023/12/16 05:22:27;;;;;;;37.63;15.40;;;;;;;4.99;100.00;103095.59;7394881;19;20476;-69
2023/12/16 05:24:55;;;;;;;47.22;16.73;;;;;;;4.98;100.00;103096.41;7397383;19;20027;-68
2023/12/16 05:27:24;;;;;;;39.10;16.10;;;;;;;4.98;100.00;103091.22;7400133;19;20025;-67
2023/12/16 05:29:55;;;;;;;43.28;17.67;;;;;;;4.98;100.00;103086.00;7402539;19;20463;-68
2023/12/16 05:32:23;;;;;;;45.55;17.40;;;;;;;4.98;100.00;103080.81;7403062;19;20356;-69
2023/12/16 05:34:53;;;;;;;38.67;16.30;;;;;;;4.97;100.00;103081.63;7402269;19;20011;-69
2023/12/16 05:37:22;;;;;;;41.53;16.40;;;;;;;4.96;100.00;103087.66;7400593;19;20095;-68
2023/12/16 05:39:50;;;;;;;33.42;15.57;;;;;;;4.96;100.00;103091.97;7402547;19;20082;-68
2023/12/16 05:42:19;;;;;;;43.10;16.65;;;;;;;4.95;100.00;103087.59;7402470;19;20070;-67
2023/12/16 05:44:47;;;;;;;37.80;16.10;;;;;;;4.94;100.00;103086.72;7402199;19;20019;-68
2023/12/16 05:47:19;;;;;;;39.42;18.10;;;;;;;4.93;100.00;103090.16;7399352;19;20023;-68
2023/12/16 05:49:48;;;;;;;36.95;16.25;;;;;;;4.96;100.00;103095.47;7403116;19;20018;-68
2023/12/16 05:52:16;;;;;;;44.03;16.77;;;;;;;4.97;100.00;103099.84;7399105;19;20035;-68
2023/12/16 05:54:45;;;;;;;40.92;16.42;;;;;;;4.98;100.00;103103.31;7402123;19;20062;-68
2023/12/16 05:57:13;;;;;;;46.28;17.20;;;;;;;4.99;100.00;103110.31;7400392;19;20070;-68
2023/12/16 05:59:42;;;;;;;36.90;17.25;;;;;;;4.98;100.00;103108.53;7399181;19;20011;-68
2023/12/16 06:02:10;;;;;;;43.75;16.27;;;;;;;5.00;100.00;103104.28;7401386;19;20497;-68
2023/12/16 06:04:42;;;;;;;40.17;16.13;;;;;;;5.02;100.00;103110.44;7398863;19;20078;-68
2023/12/16 06:07:11;;;;;;;44.20;15.25;;;;;;;5.03;100.00;103115.69;7402004;19;20007;-68
2023/12/16 06:09:39;;;;;;;37.20;16.15;;;;;;;5.03;100.00;103112.19;7401641;19;20018;-68
2023/12/16 06:12:08;;;;;;;35.75;15.52;;;;;;;5.04;100.00;103104.47;7401350;19;20018;-68
2023/12/16 06:14:37;;;;;;;39.00;16.08;;;;;;;5.04;100.00;103107.06;7398007;19;20034;-68
2023/12/16 06:17:05;;;;;;;36.70;14.63;;;;;;;5.06;100.00;103117.53;7399447;19;20424;-68
2023/12/16 06:19:34;;;;;;;35.83;15.43;;;;;;;5.06;100.00;103107.13;7400679;19;20477;-69
2023/12/16 06:22:05;;;;;;;30.90;14.38;;;;;;;5.05;100.00;103116.66;7401077;19;20015;-69
2023/12/16 06:24:34;;;;;;;38.85;14.70;;;;;;;5.07;100.00;103134.91;7398011;19;20014;-69
2023/12/16 06:27:02;;;;;;;32.95;14.85;;;;;;;5.06;100.00;103135.75;7400591;19;20011;-68
2023/12/16 06:29:31;;;;;;;40.25;14.32;;;;;;;5.09;100.00;103142.78;7400981;19;20074;-69
2023/12/16 06:31:59;;;;;;;30.70;13.73;;;;;;;5.09;100.00;103141.06;7400949;19;20019;-68
2023/12/16 06:34:27;;;;;;;35.90;15.10;;;;;;;5.11;100.00;103148.94;7398287;19;20019;-68
2023/12/16 06:36:56;;;;;;;39.80;14.63;;;;;;;5.11;100.00;103149.81;7397192;19;20070;-68
2023/12/16 06:39:27;;;;;;;31.88;13.60;;;;;;;5.09;100.00;103137.56;7400817;19;20085;-69
2023/12/16 06:41:55;;;;;;;34.63;12.55;;;;;;;5.12;100.00;103149.00;7400866;19;20082;-68
2023/12/16 06:44:24;;;;;;;34.67;13.93;;;;;;;5.13;100.00;103157.69;7398119;19;20429;-68
2023/12/16 06:46:52;;;;;;;35.55;14.52;;;;;;;5.14;100.00;103159.47;7400198;19;20102;-68
2023/12/16 06:49:21;;;;;;;31.48;12.40;;;;;;;5.14;100.00;103165.53;7400035;19;20014;-68
2023/12/16 06:51:49;;;;;;;41.47;15.05;;;;;;;5.16;100.00;103168.22;7399965;19;20078;-69
2023/12/16 06:54:19;;;;;;;35.58;13.88;;;;;;;5.17;100.00;103170.00;7397693;19;20497;-69
2023/12/16 06:56:50;;;;;;;34.58;13.77;;;;;;;5.17;100.00;103164.81;7398881;19;20017;-68
2023/12/16 06:59:18;;;;;;;34.45;13.13;;;;;;;5.18;100.00;103163.94;7397982;19;20074;-69
2023/12/16 07:01:46;;;;;;;29.60;12.30;;;;;;;5.18;100.00;103162.25;7397030;19;20007;-68
2023/12/16 07:04:15;;;;;;;31.55;12.65;;;;;;;5.21;100.00;103153.69;7397615;19;20090;-68
2023/12/16 07:06:43;;;;;;;30.17;12.02;;;;;;;5.19;100.00;103145.81;7399176;19;20078;-68
2023/12/16 07:09:12;;;;;;;30.25;12.85;;;;;;;5.18;100.00;103146.66;7400441;19;20019;-68
2023/12/16 07:11:47;;;;;;;35.72;14.70;;;;;;;5.23;100.00;103154.59;7399779;19;20027;-68
2023/12/16 07:14:19;;;;;;;46.90;16.70;;;;;;;5.22;100.00;103156.34;7397144;19;20035;-67
2023/12/16 07:16:47;;;;;;;35.45;14.85;;;;;;;5.24;100.00;103148.56;7399191;19;20078;-69
2023/12/16 07:19:16;;;;;;;48.60;17.23;;;;;;;5.21;100.00;103140.66;7398726;19;20417;-69
2023/12/16 07:21:45;;;;;;;54.47;21.10;;;;;;;5.26;100.00;103154.75;7403539;19;20066;-69
2023/12/16 07:24:13;;;;;;;37.85;16.27;;;;;;;5.27;100.00;103147.81;7397634;19;20014;-68
2023/12/16 07:26:42;;;;;;;33.25;14.90;;;;;;;5.27;100.00;103148.72;7398988;19;20083;-69
2023/12/16 07:29:11;;;;;;;33.70;13.30;;;;;;;5.27;100.00;103148.72;7398498;19;20379;-68
2023/12/16 07:31:42;;;;;;;39.17;17.05;;;;;;;5.28;100.00;103160.91;7398798;19;20067;-68
2023/12/16 07:34:12;;;;;;;51.15;20.88;;;;;;;5.29;100.00;103160.06;7396975;19;20363;-68
2023/12/16 07:36:41;;;;;;;37.53;16.70;;;;;;;5.30;100.00;103166.16;7398660;19;20074;-69
2023/12/16 07:39:09;;;;;;;27.52;13.05;;;;;;;5.31;100.00;103160.13;7398313;19;20011;-68
2023/12/16 07:41:38;;;;;;;37.67;15.98;;;;;;;5.29;100.00;103157.44;7398083;19;20086;-69
2023/12/16 07:44:07;;;;;;;38.10;16.48;;;;;;;5.33;100.00;103167.19;7395830;19;20074;-69
2023/12/16 07:46:35;;;;;;;29.75;13.60;;;;;;;5.34;100.00;103158.50;7398750;19;20070;-69
2023/12/16 07:49:06;;;;;;;29.83;12.95;;;;;;;5.36;100.00;103153.41;7397333;19;20011;-69
2023/12/16 07:51:36;;;;;;;25.67;11.00;;;;;;;5.36;100.00;103156.00;7397864;19;20103;-69
2023/12/16 07:54:04;;;;;;;23.75;9.50;;;;;;;5.38;100.00;103155.22;7396302;19;20019;-69
2023/12/16 07:56:33;;;;;;;23.90;10.63;;;;;;;5.39;100.00;103153.50;7395762;19;20070;-69
2023/12/16 07:59:01;;;;;;;22.40;8.32;;;;;;;5.41;100.00;103164.88;7395959;19;20015;-69
2023/12/16 08:01:37;;;;;;;19.88;8.77;;;;;;;5.41;100.00;103161.34;7397569;19;20023;-68
2023/12/16 08:04:08;;;;;;;22.00;8.70;;;;;;;5.44;100.00;103174.50;7396235;19;20070;-69
2023/12/16 08:06:37;;;;;;;23.85;8.68;;;;;;;5.44;100.00;103179.72;7397126;19;20020;-69
2023/12/16 08:09:06;;;;;;;20.10;7.75;;;;;;;5.44;100.00;103184.94;7398133;19;20014;-69
2023/12/16 08:11:34;;;;;;;19.20;7.18;;;;;;;5.47;100.00;103177.22;7398889;19;20548;-69
2023/12/16 08:14:03;;;;;;;20.85;9.05;;;;;;;5.49;100.00;103181.66;7395047;19;20010;-69
2023/12/16 08:16:31;;;;;;;24.50;7.90;;;;;;;5.50;100.00;103183.44;7397337;19;20021;-69
2023/12/16 08:19:00;;;;;;;18.02;7.45;;;;;;;5.52;100.00;103191.31;7394935;19;20043;-68
2023/12/16 08:21:31;;;;;;;16.42;7.30;;;;;;;5.54;100.00;103193.13;7397050;19;20031;-69
2023/12/16 08:24:00;;;;;;;14.23;6.80;;;;;;;5.54;100.00;103189.66;7395313;19;20019;-68
2023/12/16 08:26:28;;;;;;;19.75;7.03;;;;;;;5.55;100.00;103189.72;7396459;19;20379;-68
2023/12/16 08:28:56;;;;;;;15.85;7.15;;;;;;;5.55;100.00;103188.84;7396430;19;20086;-68
2023/12/16 08:31:25;;;;;;;20.92;6.57;;;;;;;5.60;100.00;103183.78;7396763;19;20086;-68
2023/12/16 08:33:53;;;;;;;17.73;7.07;;;;;;;5.61;100.00;103193.38;7394934;19;20343;-69
2023/12/16 08:36:22;;;;;;;19.15;7.10;;;;;;;5.64;100.00;103196.13;7396442;19;20077;-68
2023/12/16 08:38:53;;;;;;;14.32;5.70;;;;;;;5.64;100.00;103197.00;7395151;19;20027;-69
2023/12/16 08:41:21;;;;;;;14.10;5.63;;;;;;;5.67;100.00;103191.00;7396846;19;20035;-69
2023/12/16 08:43:50;;;;;;;11.93;5.93;;;;;;;5.69;100.00;103191.97;7395265;19;20031;-68
2023/12/16 08:46:22;;;;;;;16.80;6.53;;;;;;;5.70;100.00;103197.22;7395936;19;20010;-68
2023/12/16 08:48:53;;;;;;;13.65;5.22;;;;;;;5.70;100.00;103191.16;7395736;19;20492;-70
2023/12/16 08:51:23;;;;;;;17.20;6.45;;;;;;;5.73;100.00;103192.97;7395786;19;20502;-69
2023/12/16 08:53:54;;;;;;;12.52;5.43;;;;;;;5.75;100.00;103194.81;7394983;19;20088;-68
2023/12/16 08:56:22;;;;;;;20.33;5.75;;;;;;;5.78;100.00;103189.69;7396296;19;20031;-68
2023/12/16 08:58:51;;;;;;;12.85;5.38;;;;;;;5.82;100.00;103206.34;7394075;19;20018;-70
2023/12/16 09:01:19;;;;;;;14.98;5.68;;;;;;;5.84;100.00;103189.06;7392874;19;20015;-68
2023/12/16 09:03:48;;;;;;;12.98;4.88;;;;;;;5.88;100.00;103177.91;7393815;19;20489;-69
2023/12/16 09:06:16;;;;;;;18.08;6.93;;;;;;;5.93;100.00;103185.91;7395291;19;20027;-69
2023/12/16 09:08:45;;;;;;;14.70;4.35;;;;;;;5.93;100.00;103188.50;7395531;19;20011;-69
2023/12/16 09:11:16;;;;;;;13.68;5.07;;;;;;;5.97;100.00;103183.44;7395156;19;20431;-69
2023/12/16 09:13:45;;;;;;;10.27;4.05;;;;;;;6.01;100.00;103194.91;7393654;19;20414;-70
2023/12/16 09:16:13;;;;;;;15.13;4.93;;;;;;;6.05;100.00;103190.69;7395677;19;20015;-68
2023/12/16 09:18:42;;;;;;;17.00;4.80;;;;;;;6.07;100.00;103189.03;7393132;19;20031;-68
2023/12/16 09:21:08;;;;;;;14.27;4.95;;;;;;;6.10;100.00;103189.13;7395035;19;20074;-69
2023/12/16 09:23:37;;;;;;;11.27;4.50;;;;;;;6.11;100.00;103180.50;7394101;19;20006;-69
2023/12/16 09:26:06;;;;;;;27.45;6.18;;;;;;;6.14;100.00;103178.88;7393421;19;20010;-69
2023/12/16 09:28:37;;;;;;;18.75;4.90;;;;;;;6.15;100.00;103184.97;7395031;19;20099;-69
2023/12/16 09:31:06;;;;;;;15.73;4.95;;;;;;;6.18;100.00;103172.94;7395216;19;20074;-69
2023/12/16 09:33:35;;;;;;;17.60;4.10;;;;;;;6.21;100.00;103177.38;7392457;19;20023;-69
2023/12/16 09:36:03;;;;;;;20.83;4.80;;;;;;;6.22;100.00;103166.13;7392899;19;20023;-68
2023/12/16 09:38:32;;;;;;;20.92;4.72;;;;;;;6.26;100.00;103168.00;7396726;19;20019;-69
2023/12/16 09:41:01;;;;;;;21.38;5.20;;;;;;;6.27;100.00;103169.78;7392721;19;20506;-68
2023/12/16 09:43:35;;;;;;;9.25;4.07;;;;;;;6.30;100.00;103171.59;7393618;19;20082;-69
2023/12/16 09:46:06;;;;;;;13.20;4.30;;;;;;;6.31;100.00;103161.22;7394229;19;20501;-69
2023/12/16 09:48:35;;;;;;;14.20;4.45;;;;;;;6.33;100.00;103158.66;7393815;19;20078;-69
2023/12/16 09:51:03;;;;;;;13.73;4.15;;;;;;;6.31;100.00;103152.53;7393889;19;20010;-69
2023/12/16 09:53:32;;;;;;;18.38;5.13;;;;;;;6.33;100.00;103166.47;7393151;19;20011;-69
2023/12/16 09:56:01;;;;;;;12.57;4.25;;;;;;;6.32;100.00;103165.59;7392191;19;20070;-69
2023/12/16 09:58:32;;;;;;;12.38;4.20;;;;;;;6.29;100.00;103162.00;7392906;19;20493;-69
2023/12/16 10:01:01;;;;;;;13.85;4.38;;;;;;;6.27;100.00;103164.56;7394740;19;20014;-69
2023/12/16 10:03:32;;;;;;;15.50;3.92;;;;;;;6.23;100.00;103178.34;7391761;19;20495;-67
2023/12/16 10:06:01;;;;;;;12.60;4.35;;;;;;;6.21;100.00;103173.91;7394280;19;20416;-67
2023/12/16 10:08:29;;;;;;;12.07;4.43;;;;;;;6.18;100.00;103159.91;7394089;19;20014;-68
2023/12/16 10:11:02;;;;;;;18.60;5.03;;;;;;;6.15;100.00;103151.97;7395803;19;20074;-68
2023/12/16 10:13:31;;;;;;;17.52;5.53;;;;;;;6.15;100.00;103153.69;7399410;19;20112;-69
2023/12/16 10:16:00;;;;;;;10.60;4.32;;;;;;;6.14;100.00;103150.22;7401903;19;20074;-68
2023/12/16 10:18:31;;;;;;;11.95;4.85;;;;;;;6.12;100.00;103140.56;7399853;19;20070;-68
2023/12/16 10:21:00;;;;;;;19.13;5.50;;;;;;;6.14;100.00;103128.47;7401219;19;20071;-68
2023/12/16 10:23:29;;;;;;;18.17;6.47;;;;;;;6.14;100.00;103126.75;7399733;19;20011;-68
2023/12/16 10:25:57;;;;;;;15.77;5.30;;;;;;;6.15;100.00;103112.00;7398113;19;20018;-68
2023/12/16 10:28:29;;;;;;;15.57;4.88;;;;;;;6.14;100.00;103099.78;7400238;19;20414;-68
2023/12/16 10:30:58;;;;;;;14.35;4.97;;;;;;;6.18;100.00;103109.50;7401314;19;20003;-68
2023/12/16 10:33:28;;;;;;;23.40;6.82;;;;;;;6.21;100.00;103106.13;7399529;19;20018;-68
2023/12/16 10:35:59;;;;;;;13.88;5.78;;;;;;;6.24;100.00;103106.22;7400286;19;20488;-68
2023/12/16 10:38:28;;;;;;;16.20;5.60;;;;;;;6.28;100.00;103114.19;7399889;19;20085;-68
2023/12/16 10:40:57;;;;;;;17.23;7.93;;;;;;;6.31;100.00;103111.69;7400455;19;20019;-68
2023/12/16 10:43:25;;;;;;;17.45;6.30;;;;;;;6.34;100.00;103108.28;7398548;19;20023;-66
2023/12/16 10:45:56;;;;;;;13.93;5.80;;;;;;;6.35;100.00;103108.34;7397332;19;20019;-66
2023/12/16 10:48:27;;;;;;;17.80;6.63;;;;;;;6.40;100.00;103105.03;7397555;19;20018;-66
2023/12/16 10:50:56;;;;;;;26.77;11.85;;;;;;;6.45;100.00;103108.66;7397909;19;20022;-67
2023/12/16 10:53:36;;;;;;;13.60;6.95;;;;;;;6.48;100.00;103100.94;7398995;19;20018;-66
2023/12/16 10:56:10;;;;;;;18.52;6.78;;;;;;;6.53;100.00;103104.56;7399787;19;20025;-66
2023/12/16 10:58:50;;;;;;;17.85;6.32;;;;;;;6.54;100.00;103098.53;7397118;19;20371;-66
2023/12/16 11:01:29;;;;;;;16.08;7.07;;;;;;;6.59;100.00;103090.88;7398841;19;20015;-66
2023/12/16 11:04:12;;;;;;;24.45;7.63;;;;;;;6.65;100.00;103076.28;7397303;19;20040;-66
2023/12/16 11:06:46;;;;;;;21.48;8.07;;;;;;;6.72;100.00;103079.09;7398683;19;20381;-65
2023/12/16 11:09:18;;;;;;;20.20;7.40;;;;;;;6.77;100.00;103074.91;7398534;19;20017;-65
2023/12/16 11:11:48;;;;;;;18.95;7.53;;;;;;;6.80;100.00;103085.44;7399000;19;20414;-65
2023/12/16 11:14:18;;;;;;;16.23;6.80;;;;;;;6.87;100.00;103092.63;7396608;19;20031;-66
2023/12/16 11:16:57;;;;;;;18.45;7.03;;;;;;;6.92;100.00;103084.94;7398819;19;20501;-67
2023/12/16 11:19:28;;;;;;;13.25;5.97;;;;;;;6.96;100.00;103087.69;7397373;19;20483;-67
2023/12/16 11:21:57;;;;;;;12.63;6.47;;;;;;;6.99;100.00;103084.31;7399088;19;20018;-67